Time;durP1;ratioP1;P1;durP2;ratioP2;P2;SDS_P1;SDS_P2;PMS_P1;PMS_P2;Temp;Humidity;BMP_temperature;BMP_pressure;BME280_temperature;BME280_humidity;BME280_pressure;Samples;Min_cycle;Max_cycle;Signal;HPM_P1;HPM_P2
2020/12/01 00:00:00;;;;;;;10.63;2.17;;;;;;;11.06;100.00;102810.88;5091733;28;20081;-68
2020/12/01 00:02:26;;;;;;;8.48;2.20;;;;;;;11.07;100.00;102801.63;5091354;28;20876;-68
2020/12/01 00:04:52;;;;;;;11.32;2.00;;;;;;;11.05;100.00;102792.78;5091434;28;20040;-69
2020/12/01 00:07:18;;;;;;;9.20;2.17;;;;;;;11.03;100.00;102803.06;5091402;28;20119;-71
2020/12/01 00:09:44;;;;;;;8.52;1.85;;;;;;;11.02;100.00;102804.13;5091501;28;20086;-68
2020/12/01 00:12:10;;;;;;;10.02;1.85;;;;;;;11.00;100.00;102795.28;5091415;28;20040;-66
2020/12/01 00:14:36;;;;;;;10.48;2.05;;;;;;;10.99;100.00;102820.94;5089917;28;20453;-68
2020/12/01 00:17:02;;;;;;;12.70;2.50;;;;;;;11.00;100.00;102811.69;5091390;28;20068;-69
2020/12/01 00:19:27;;;;;;;8.43;1.48;;;;;;;10.98;100.00;102808.31;5091035;28;20044;-68
2020/12/01 00:21:53;;;;;;;10.52;2.47;;;;;;;10.98;100.00;102808.31;5091158;28;20036;-68
2020/12/01 00:24:19;;;;;;;10.40;2.20;;;;;;;10.96;100.00;102804.91;5091213;28;20449;-70
2020/12/01 00:26:44;;;;;;;12.07;2.40;;;;;;;10.97;100.00;102805.78;5091226;28;20062;-67
2020/12/01 00:29:10;;;;;;;11.45;2.15;;;;;;;10.98;100.00;102808.31;5091294;28;20488;-67
2020/12/01 00:31:40;;;;;;;8.60;2.70;;;;;;;11.02;100.00;102816.94;5091065;28;20043;-69
2020/12/01 00:34:07;;;;;;;9.65;3.40;;;;;;;11.04;100.00;102806.66;5091255;28;20047;-68
2020/12/01 00:36:33;;;;;;;11.18;2.70;;;;;;;11.05;100.00;102813.81;5091117;28;20082;-67
2020/12/01 00:38:59;;;;;;;14.57;2.88;;;;;;;11.07;100.00;102809.84;5090999;28;20470;-71
2020/12/01 00:41:24;;;;;;;6.55;2.00;;;;;;;11.08;100.00;102811.53;5091061;28;20028;-70
2020/12/01 00:43:50;;;;;;;9.23;2.00;;;;;;;11.07;100.00;102818.03;5091198;28;20032;-69
2020/12/01 00:46:16;;;;;;;11.23;2.60;;;;;;;11.09;100.00;102818.69;5091441;28;20035;-68
2020/12/01 00:48:42;;;;;;;13.38;2.00;;;;;;;11.06;100.00;102816.34;5090884;28;20040;-68
2020/12/01 00:51:07;;;;;;;10.45;2.20;;;;;;;11.05;100.00;102825.59;5090917;28;20032;-68
2020/12/01 00:53:33;;;;;;;6.70;1.55;;;;;;;11.00;100.00;102819.88;5090840;28;20517;-68
2020/12/01 00:55:58;;;;;;;7.68;1.45;;;;;;;10.93;100.00;102831.78;5091413;28;20382;-67
2020/12/01 00:58:24;;;;;;;4.93;1.77;;;;;;;10.91;100.00;102844.81;5090769;28;20581;-69
2020/12/01 01:00:50;;;;;;;7.60;1.60;;;;;;;10.89;100.00;102845.00;5090966;28;20040;-69
2020/12/01 01:03:16;;;;;;;8.35;1.80;;;;;;;10.88;100.00;102837.84;5090886;28;20039;-68
2020/12/01 01:05:41;;;;;;;6.75;1.52;;;;;;;10.85;100.00;102835.50;5090911;28;20036;-68
2020/12/01 01:08:07;;;;;;;8.93;1.63;;;;;;;10.83;100.00;102832.13;5091124;28;20043;-67
2020/12/01 01:10:33;;;;;;;7.65;1.50;;;;;;;10.79;100.00;102825.38;5090756;28;20079;-68
2020/12/01 01:13:00;;;;;;;7.53;1.60;;;;;;;10.78;100.00;102829.16;5089476;28;20097;-69
2020/12/01 01:15:31;;;;;;;5.00;1.40;;;;;;;10.74;100.00;102819.63;5090725;28;20055;-70
2020/12/01 01:17:57;;;;;;;10.75;1.60;;;;;;;10.71;100.00;102831.78;5090682;28;20036;-70
2020/12/01 01:20:24;;;;;;;11.75;1.52;;;;;;;10.68;100.00;102817.69;5090613;28;20127;-69
2020/12/01 01:22:50;;;;;;;7.60;1.67;;;;;;;10.66;100.00;102808.81;5090444;28;20032;-67
2020/12/01 01:25:17;;;;;;;10.60;1.80;;;;;;;10.64;100.00;102821.84;5091561;28;20163;-68
2020/12/01 01:27:45;;;;;;;6.82;1.88;;;;;;;10.62;100.00;102813.00;5094277;28;20571;-68
2020/12/01 01:30:14;;;;;;;12.00;1.48;;;;;;;10.58;100.00;102816.09;5094319;28;20047;-69
2020/12/01 01:32:40;;;;;;;9.80;1.50;;;;;;;10.56;100.00;102831.84;5094124;28;20036;-69
2020/12/01 01:35:05;;;;;;;10.98;1.80;;;;;;;10.54;100.00;102823.00;5094337;28;20474;-70
2020/12/01 01:37:31;;;;;;;13.73;1.98;;;;;;;10.52;100.00;102822.34;5094030;28;20044;-70
2020/12/01 01:39:56;;;;;;;13.45;2.22;;;;;;;10.49;100.00;102825.47;5094125;28;20378;-69
2020/12/01 01:42:22;;;;;;;8.50;1.65;;;;;;;10.47;100.00;102827.56;5093972;28;20063;-69
2020/12/01 01:44:48;;;;;;;17.75;1.83;;;;;;;10.45;100.00;102832.38;5094031;28;20039;-69
2020/12/01 01:47:23;;;;;;;16.38;3.42;;;;;;;10.43;100.00;102839.91;5093889;28;20478;-69
2020/12/01 01:49:56;;;;;;;6.60;1.70;;;;;;;10.42;100.00;102830.03;5093967;28;20105;-71
2020/12/01 01:52:27;;;;;;;11.40;1.48;;;;;;;10.39;100.00;102830.38;5093937;28;20032;-68
2020/12/01 01:54:56;;;;;;;12.52;1.63;;;;;;;10.37;100.00;102842.53;5093924;28;20431;-69
2020/12/01 01:57:22;;;;;;;12.95;1.50;;;;;;;10.35;100.00;102833.69;5093569;28;20135;-69
2020/12/01 01:59:49;;;;;;;8.27;1.65;;;;;;;10.32;100.00;102834.94;5093752;28;20123;-68
2020/12/01 02:02:15;;;;;;;12.23;1.50;;;;;;;10.31;100.00;102855.09;5093599;28;20051;-68
2020/12/01 02:04:41;;;;;;;17.65;2.67;;;;;;;10.29;100.00;102868.09;5093658;28;20036;-69
2020/12/01 02:07:07;;;;;;;15.35;2.40;;;;;;;10.28;100.00;102866.41;5092217;28;20448;-69
2020/12/01 02:09:57;;;;;;;12.90;1.90;;;;;;;10.25;100.00;102862.19;5093681;28;20073;-69
2020/12/01 02:12:24;;;;;;;13.07;2.13;;;;;;;10.24;100.00;102862.38;5093435;28;20386;-69
2020/12/01 02:14:58;;;;;;;13.23;2.33;;;;;;;10.24;100.00;102870.56;5093438;28;20047;-70
2020/12/01 02:17:30;;;;;;;18.57;3.33;;;;;;;10.20;100.00;102880.13;5093574;28;20385;-71
2020/12/01 02:20:00;;;;;;;11.05;1.92;;;;;;;10.19;100.00;102881.16;5093208;28;20418;-68
2020/12/01 02:22:28;;;;;;;14.43;1.58;;;;;;;10.16;100.00;102878.81;5093292;28;20067;-71
2020/12/01 02:24:56;;;;;;;19.02;2.85;;;;;;;10.14;100.00;102865.34;5093328;28;20032;-70
2020/12/01 02:27:25;;;;;;;14.73;2.03;;;;;;;10.13;100.00;102873.72;5093113;28;20523;-69
2020/12/01 02:29:54;;;;;;;19.88;2.08;;;;;;;10.10;100.00;102869.50;5093249;28;20059;-69
2020/12/01 02:32:24;;;;;;;17.20;2.55;;;;;;;10.08;100.00;102863.38;5093056;28;20363;-68
2020/12/01 02:34:51;;;;;;;14.30;1.65;;;;;;;10.06;100.00;102867.31;5093060;28;20455;-70
2020/12/01 02:37:22;;;;;;;18.80;3.00;;;;;;;10.03;100.00;102862.25;5092656;28;20107;-69
2020/12/01 02:39:48;;;;;;;10.70;1.75;;;;;;;10.00;100.00;102859.88;5093060;28;20482;-68
2020/12/01 02:42:22;;;;;;;12.82;2.15;;;;;;;9.98;100.00;102860.94;5092888;28;20116;-69
2020/12/01 02:44:49;;;;;;;8.45;1.88;;;;;;;9.95;100.00;102866.78;5092893;28;20081;-68
2020/12/01 02:47:15;;;;;;;14.05;1.80;;;;;;;9.93;100.00;102874.31;5092638;28;20048;-68
2020/12/01 02:49:41;;;;;;;12.15;2.38;;;;;;;9.90;100.00;102891.06;5092797;28;20043;-71
2020/12/01 02:52:06;;;;;;;12.18;1.65;;;;;;;9.88;100.00;102886.81;5092612;28;20092;-71
2020/12/01 02:54:32;;;;;;;11.93;2.58;;;;;;;9.85;100.00;102884.47;5092564;28;20058;-69
2020/12/01 02:56:57;;;;;;;18.50;2.65;;;;;;;9.82;100.00;102884.84;5092535;28;20064;-69
2020/12/01 02:59:23;;;;;;;13.07;1.45;;;;;;;9.79;100.00;102898.88;5092561;28;20036;-67
2020/12/01 03:01:48;;;;;;;14.18;2.22;;;;;;;9.78;100.00;102897.16;5092399;28;20042;-69
2020/12/01 03:04:14;;;;;;;20.05;2.08;;;;;;;9.75;100.00;102892.94;5092446;28;20127;-68
2020/12/01 03:06:40;;;;;;;12.82;2.00;;;;;;;9.72;100.00;102898.78;5092276;28;20447;-68
2020/12/01 03:09:09;;;;;;;14.65;1.77;;;;;;;9.72;100.00;102897.88;5092340;28;20119;-70
2020/12/01 03:11:34;;;;;;;21.42;2.38;;;;;;;9.68;100.00;102903.72;5092251;28;20040;-70
2020/12/01 03:14:00;;;;;;;13.52;2.42;;;;;;;9.67;100.00;102895.72;5092357;28;20070;-69
2020/12/01 03:16:26;;;;;;;12.38;1.70;;;;;;;9.64;100.00;102901.56;5092245;28;20060;-67
2020/12/01 03:18:51;;;;;;;15.77;2.33;;;;;;;9.60;100.00;102900.25;5091847;28;20044;-68
2020/12/01 03:21:17;;;;;;;14.88;2.50;;;;;;;9.57;100.00;102896.00;5092220;28;20105;-71
2020/12/01 03:23:43;;;;;;;18.52;1.98;;;;;;;9.54;100.00;102909.16;5092018;28;20042;-68
2020/12/01 03:26:12;;;;;;;18.13;2.30;;;;;;;9.51;100.00;102913.09;5092106;28;20542;-68
2020/12/01 03:28:39;;;;;;;16.65;2.33;;;;;;;9.49;100.00;102908.88;5091949;28;20112;-68
2020/12/01 03:31:04;;;;;;;13.27;2.58;;;;;;;9.47;100.00;102902.75;5092090;28;20085;-68
2020/12/01 03:33:30;;;;;;;12.48;2.35;;;;;;;9.46;100.00;102903.78;5091973;28;20040;-70
2020/12/01 03:35:56;;;;;;;13.13;2.10;;;;;;;9.44;100.00;102900.41;5091937;28;20505;-69
2020/12/01 03:38:21;;;;;;;17.88;3.22;;;;;;;9.43;100.00;102901.44;5091704;28;20039;-68
2020/12/01 03:40:47;;;;;;;13.32;2.03;;;;;;;9.41;100.00;102907.06;5091817;28;20036;-69
2020/12/01 03:43:13;;;;;;;15.90;2.47;;;;;;;9.39;100.00;102914.59;5090392;28;20028;-70
2020/12/01 03:45:39;;;;;;;13.10;1.63;;;;;;;9.38;100.00;102917.50;5091773;28;20056;-72
2020/12/01 03:48:05;;;;;;;13.38;2.33;;;;;;;9.34;100.00;102908.81;5091184;28;20501;-66
2020/12/01 03:50:31;;;;;;;12.27;2.13;;;;;;;9.32;100.00;102911.72;5091776;28;20071;-69
2020/12/01 03:52:57;;;;;;;14.65;2.50;;;;;;;9.30;100.00;102907.50;5091483;28;20043;-69
2020/12/01 03:55:24;;;;;;;18.67;1.98;;;;;;;9.27;100.00;102911.44;5091581;28;20036;-70
2020/12/01 03:57:50;;;;;;;12.35;1.98;;;;;;;9.25;100.00;102913.50;5091305;28;20390;-71
2020/12/01 04:00:20;;;;;;;9.18;1.63;;;;;;;9.23;100.00;102907.41;5091541;28;20055;-68
2020/12/01 04:02:46;;;;;;;15.85;1.67;;;;;;;9.21;100.00;102914.91;5091572;28;20063;-69
2020/12/01 04:05:13;;;;;;;13.18;2.03;;;;;;;9.21;100.00;102916.78;5091618;28;20451;-70
2020/12/01 04:07:39;;;;;;;17.85;2.42;;;;;;;9.18;100.00;102923.44;5091302;28;20401;-68
2020/12/01 04:10:05;;;;;;;8.50;2.00;;;;;;;9.18;100.00;102928.88;5091381;28;20047;-69
2020/12/01 04:12:32;;;;;;;11.68;2.17;;;;;;;9.16;100.00;102928.22;5091294;28;20032;-68
2020/12/01 04:14:57;;;;;;;17.17;1.90;;;;;;;9.14;100.00;102924.84;5091313;28;20401;-69
2020/12/01 04:17:23;;;;;;;14.27;2.25;;;;;;;9.13;100.00;102925.03;5091170;28;20044;-68
2020/12/01 04:19:50;;;;;;;10.98;1.40;;;;;;;9.09;100.00;102919.09;5091217;28;20052;-68
2020/12/01 04:22:16;;;;;;;9.38;2.22;;;;;;;9.07;100.00;102921.16;5091303;28;20169;-71
2020/12/01 04:24:41;;;;;;;12.52;1.88;;;;;;;9.05;100.00;102926.78;5091639;28;20410;-67
2020/12/01 04:27:12;;;;;;;12.00;1.52;;;;;;;9.02;100.00;102923.53;5091146;28;20052;-70
2020/12/01 04:29:37;;;;;;;7.65;1.58;;;;;;;9.00;100.00;102925.63;5091176;28;20248;-67
2020/12/01 04:32:04;;;;;;;25.25;2.58;;;;;;;8.96;100.00;102927.00;5091131;28;20068;-69
2020/12/01 04:34:30;;;;;;;12.75;2.53;;;;;;;8.92;100.00;102928.41;5091032;28;20039;-69
2020/12/01 04:36:56;;;;;;;8.27;1.75;;;;;;;8.89;100.00;102928.78;5091037;28;20032;-68
2020/12/01 04:39:22;;;;;;;12.93;2.30;;;;;;;8.85;100.00;102921.97;5091050;28;20043;-67
2020/12/01 04:41:48;;;;;;;14.35;2.25;;;;;;;8.82;100.00;102916.88;5091080;28;20058;-68
2020/12/01 04:44:30;;;;;;;18.15;3.55;;;;;;;8.76;100.00;102913.84;5089759;28;20032;-70
2020/12/01 04:46:59;;;;;;;8.88;1.85;;;;;;;8.73;100.00;102925.13;5090864;28;20047;-69
2020/12/01 04:49:30;;;;;;;16.60;1.90;;;;;;;8.67;100.00;102928.53;5091021;28;20032;-69
2020/12/01 04:52:25;;;;;;;16.27;2.80;;;;;;;8.66;100.00;102929.56;5090942;28;20032;-69
2020/12/01 04:55:33;;;;;;;15.80;2.75;;;;;;;8.64;100.00;102931.63;5091069;28;20470;-69
2020/12/01 04:58:23;;;;;;;9.82;2.40;;;;;;;8.60;100.00;102929.44;5091080;28;20436;-68
2020/12/01 05:01:15;;;;;;;10.40;1.80;;;;;;;8.56;100.00;102934.41;5092806;28;20039;-71
2020/12/01 05:04:16;;;;;;;12.27;1.95;;;;;;;8.53;100.00;102931.19;5094799;28;20385;-68
2020/12/01 05:07:08;;;;;;;12.00;1.92;;;;;;;8.49;100.00;102938.84;5094678;28;20027;-69
2020/12/01 05:09:42;;;;;;;14.00;2.03;;;;;;;8.44;100.00;102935.81;5094709;28;20084;-69
2020/12/01 05:12:26;;;;;;;16.40;2.55;;;;;;;8.39;100.00;102947.22;5094584;28;20115;-70
2020/12/01 05:14:59;;;;;;;12.80;1.92;;;;;;;8.37;100.00;102951.16;5094727;28;20089;-70
2020/12/01 05:17:46;;;;;;;13.70;2.55;;;;;;;8.34;100.00;102948.81;5094406;28;20044;-67
2020/12/01 05:20:12;;;;;;;13.48;1.77;;;;;;;8.32;100.00;102956.22;5094311;28;20128;-68
2020/12/01 05:22:40;;;;;;;12.23;2.25;;;;;;;8.28;100.00;102955.75;5092951;28;20126;-70
2020/12/01 05:25:20;;;;;;;12.63;1.65;;;;;;;8.26;100.00;102963.22;5094463;28;20339;-69
2020/12/01 05:27:46;;;;;;;16.90;2.03;;;;;;;8.22;100.00;102969.22;5094369;28;20118;-70
2020/12/01 05:30:23;;;;;;;10.63;1.80;;;;;;;8.18;100.00;102967.88;5094321;28;20035;-67
2020/12/01 05:33:05;;;;;;;10.80;1.77;;;;;;;8.14;100.00;102962.75;5094241;28;20047;-68
2020/12/01 05:35:33;;;;;;;16.60;3.17;;;;;;;8.10;100.00;102961.41;5094460;28;20032;-69
2020/12/01 05:38:19;;;;;;;15.20;2.40;;;;;;;8.06;100.00;102968.22;5094064;28;20054;-70
2020/12/01 05:40:56;;;;;;;15.68;2.60;;;;;;;8.05;100.00;102963.81;5094395;28;20085;-69
2020/12/01 05:43:27;;;;;;;19.90;2.33;;;;;;;8.04;100.00;102961.25;5093863;28;20042;-70
2020/12/01 05:46:19;;;;;;;13.15;1.48;;;;;;;8.03;100.00;102965.84;5094101;28;20071;-69
2020/12/01 05:49:20;;;;;;;13.05;1.80;;;;;;;8.01;100.00;102967.06;5093906;28;20031;-70
2020/12/01 05:51:53;;;;;;;11.55;1.88;;;;;;;7.98;100.00;102978.25;5093658;28;20035;-71
2020/12/01 05:54:33;;;;;;;8.32;1.50;;;;;;;7.95;100.00;102971.31;5093670;28;20051;-66
2020/12/01 05:56:59;;;;;;;11.82;2.30;;;;;;;7.93;100.00;102981.50;5093559;28;20032;-69
2020/12/01 05:59:25;;;;;;;13.40;2.42;;;;;;;7.90;100.00;102981.84;5093524;28;20047;-71
2020/12/01 06:02:00;;;;;;;9.48;1.50;;;;;;;7.86;100.00;102983.22;5093557;28;20036;-70
2020/12/01 06:04:27;;;;;;;13.35;2.08;;;;;;;7.84;100.00;102982.56;5093538;28;20039;-69
2020/12/01 06:07:06;;;;;;;18.48;2.55;;;;;;;7.82;100.00;102985.47;5093294;28;20105;-71
2020/12/01 06:09:47;;;;;;;14.48;1.95;;;;;;;7.80;100.00;102986.63;5093434;28;20070;-68
2020/12/01 06:12:21;;;;;;;18.80;2.95;;;;;;;7.78;100.00;102991.38;5092801;28;20038;-68
2020/12/01 06:14:57;;;;;;;16.30;2.22;;;;;;;7.76;100.00;102998.88;5093300;28;20056;-69
2020/12/01 06:17:50;;;;;;;12.63;1.92;;;;;;;7.73;100.00;102996.50;5093150;28;20039;-70
2020/12/01 06:20:39;;;;;;;13.77;2.92;;;;;;;7.72;100.00;103005.69;5093162;28;20913;-69
2020/12/01 06:23:29;;;;;;;14.57;1.85;;;;;;;7.67;100.00;103008.06;5093115;28;20474;-69
2020/12/01 06:25:54;;;;;;;13.57;1.88;;;;;;;7.65;100.00;103004.69;5093065;28;20024;-69
2020/12/01 06:28:38;;;;;;;13.35;1.80;;;;;;;7.63;100.00;103017.56;5092975;28;20431;-69
2020/12/01 06:31:35;;;;;;;10.63;1.95;;;;;;;7.59;100.00;103010.78;5092960;28;20032;-67
2020/12/01 06:34:06;;;;;;;16.75;2.38;;;;;;;7.56;100.00;103014.69;5092949;28;20042;-69
2020/12/01 06:36:49;;;;;;;18.75;2.40;;;;;;;7.53;100.00;103013.16;5092889;28;20032;-68
2020/12/01 06:39:27;;;;;;;12.68;2.35;;;;;;;7.52;100.00;103016.06;5092972;28;20389;-69
2020/12/01 06:42:08;;;;;;;21.55;2.65;;;;;;;7.48;100.00;103020.97;5092500;28;20119;-69
2020/12/01 06:44:34;;;;;;;16.58;3.33;;;;;;;7.46;100.00;103017.59;5092655;28;20028;-68
2020/12/01 06:46:59;;;;;;;19.67;2.78;;;;;;;7.44;100.00;103019.59;5092505;28;20076;-69
2020/12/01 06:49:28;;;;;;;14.93;2.55;;;;;;;7.43;100.00;103015.19;5091165;28;20044;-69
2020/12/01 06:51:59;;;;;;;12.45;1.90;;;;;;;7.43;100.00;103025.19;5092579;28;20085;-70
2020/12/01 06:54:25;;;;;;;16.38;2.95;;;;;;;7.40;100.00;103023.69;5092482;28;20618;-69
2020/12/01 06:57:03;;;;;;;18.80;2.55;;;;;;;7.40;100.00;103036.41;5092382;28;20036;-68
2020/12/01 06:59:28;;;;;;;14.73;1.50;;;;;;;7.40;100.00;103028.25;5092263;28;20032;-69
2020/12/01 07:02:25;;;;;;;12.73;1.52;;;;;;;7.39;100.00;103026.56;5092207;28;20044;-70
2020/12/01 07:05:07;;;;;;;13.15;2.05;;;;;;;7.38;100.00;103030.31;5092000;28;20044;-69
2020/12/01 07:07:36;;;;;;;20.58;1.80;;;;;;;7.37;100.00;103034.88;5092093;28;20028;-69
2020/12/01 07:10:25;;;;;;;11.95;2.45;;;;;;;7.37;100.00;103034.03;5092398;28;20036;-69
2020/12/01 07:13:04;;;;;;;16.00;1.70;;;;;;;7.37;100.00;103044.91;5092100;28;20043;-69
2020/12/01 07:15:36;;;;;;;11.45;2.22;;;;;;;7.35;100.00;103039.66;5092040;28;20508;-67
2020/12/01 07:18:14;;;;;;;16.70;2.67;;;;;;;7.35;100.00;103036.09;5091751;28;20047;-67
2020/12/01 07:21:17;;;;;;;19.60;2.58;;;;;;;7.34;100.00;103045.25;5091755;28;20550;-72
2020/12/01 07:23:52;;;;;;;9.35;2.15;;;;;;;7.33;100.00;103049.84;5090974;28;20034;-68
2020/12/01 07:26:47;;;;;;;13.07;2.72;;;;;;;7.33;100.00;103038.97;5091862;28;20466;-67
2020/12/01 07:29:22;;;;;;;11.80;2.00;;;;;;;7.32;100.00;103042.72;5091958;28;20490;-68
2020/12/01 07:31:48;;;;;;;21.92;2.47;;;;;;;7.32;100.00;103045.44;5091743;28;20119;-69
2020/12/01 07:34:17;;;;;;;10.93;2.88;;;;;;;7.32;100.00;103047.28;5091756;28;20036;-70
2020/12/01 07:36:50;;;;;;;13.73;2.10;;;;;;;7.33;100.00;103046.28;5091612;28;20046;-68
2020/12/01 07:39:20;;;;;;;19.73;2.30;;;;;;;7.31;100.00;103045.59;5091591;28;20032;-67
2020/12/01 07:41:59;;;;;;;18.48;2.55;;;;;;;7.31;100.00;103043.72;5091700;28;20028;-69
2020/12/01 07:44:29;;;;;;;11.73;2.10;;;;;;;7.30;100.00;103066.50;5091605;28;20039;-68
2020/12/01 07:47:06;;;;;;;14.13;2.20;;;;;;;7.30;100.00;103066.50;5091563;28;20047;-69
2020/12/01 07:49:34;;;;;;;14.38;2.10;;;;;;;7.31;100.00;103065.47;5091597;28;20028;-68
2020/12/01 07:52:15;;;;;;;11.55;2.55;;;;;;;7.31;100.00;103073.63;5091416;28;20104;-68
2020/12/01 07:54:49;;;;;;;17.08;3.13;;;;;;;7.30;100.00;103071.06;5091421;28;20123;-69
2020/12/01 07:57:19;;;;;;;20.27;2.17;;;;;;;7.29;100.00;103075.66;5091300;28;20032;-68
2020/12/01 07:59:47;;;;;;;11.00;2.25;;;;;;;7.31;100.00;103081.78;5091359;28;20105;-68
2020/12/01 08:02:15;;;;;;;19.00;3.28;;;;;;;7.30;100.00;103077.38;5090096;28;20032;-67
2020/12/01 08:04:41;;;;;;;14.85;2.15;;;;;;;7.33;100.00;103078.91;5091286;28;20040;-68
2020/12/01 08:07:13;;;;;;;16.90;2.60;;;;;;;7.36;100.00;103070.41;5091104;28;20028;-69
2020/12/01 08:09:39;;;;;;;17.48;2.42;;;;;;;7.39;100.00;103081.78;5091540;28;20032;-69
2020/12/01 08:12:12;;;;;;;5.63;1.65;;;;;;;7.40;100.00;103080.78;5091169;28;20069;-67
2020/12/01 08:14:38;;;;;;;15.30;2.17;;;;;;;7.43;100.00;103083.16;5091244;28;20032;-68
2020/12/01 08:17:07;;;;;;;23.70;2.85;;;;;;;7.45;100.00;103092.00;5091092;28;20047;-67
2020/12/01 08:19:34;;;;;;;12.05;2.83;;;;;;;7.48;100.00;103090.84;5090905;28;20044;-69
2020/12/01 08:22:00;;;;;;;14.50;2.17;;;;;;;7.49;100.00;103085.22;5091006;28;20043;-66
2020/12/01 08:24:30;;;;;;;21.83;3.42;;;;;;;7.51;100.00;103085.06;5091155;28;20040;-68
2020/12/01 08:27:17;;;;;;;13.13;2.72;;;;;;;7.53;100.00;103089.31;5091034;28;20474;-69
2020/12/01 08:29:44;;;;;;;13.93;2.60;;;;;;;7.55;100.00;103076.38;5091215;28;20030;-71
2020/12/01 08:32:30;;;;;;;13.15;2.28;;;;;;;7.62;100.00;103081.16;5091181;28;20036;-69
2020/12/01 08:35:14;;;;;;;14.65;4.30;;;;;;;7.66;100.00;103077.09;5093242;28;20436;-70
2020/12/01 08:38:05;;;;;;;17.38;2.72;;;;;;;7.70;100.00;103073.00;5094201;28;20505;-71
2020/12/01 08:40:43;;;;;;;11.77;2.00;;;;;;;7.74;100.00;103071.66;5089652;28;20727;-67
2020/12/01 08:43:15;;;;;;;15.80;2.22;;;;;;;7.78;100.00;103070.28;5093714;28;20119;-67
2020/12/01 08:45:52;;;;;;;12.88;1.88;;;;;;;7.82;100.00;103072.53;5094716;28;20058;-67
2020/12/01 08:48:49;;;;;;;15.82;2.92;;;;;;;7.88;100.00;103070.97;5094353;28;20024;-69
2020/12/01 08:51:29;;;;;;;13.68;2.90;;;;;;;7.93;100.00;103076.75;5092728;28;20460;-70
2020/12/01 08:54:01;;;;;;;14.90;2.63;;;;;;;7.95;100.00;103082.88;5094530;28;20559;-71
2020/12/01 08:56:40;;;;;;;13.07;2.30;;;;;;;8.01;100.00;103087.66;5094376;28;20036;-71
2020/12/01 08:59:11;;;;;;;11.88;2.63;;;;;;;8.07;100.00;103086.13;5093385;28;20434;-72
2020/12/01 09:02:00;;;;;;;24.00;4.25;;;;;;;8.12;100.00;103091.88;5088306;28;20511;-66
2020/12/01 09:04:29;;;;;;;19.63;2.42;;;;;;;8.14;100.00;103077.09;5092898;28;20028;-69
2020/12/01 09:07:28;;;;;;;9.52;1.90;;;;;;;8.19;100.00;103076.59;5094014;28;20031;-67
2020/12/01 09:10:18;;;;;;;9.32;3.05;;;;;;;8.23;100.00;103079.81;5092533;28;20028;-70
2020/12/01 09:12:57;;;;;;;13.20;2.20;;;;;;;8.26;100.00;103084.91;5093720;28;20031;-70
2020/12/01 09:24:16;;;;;;;13.57;2.97;;;;;;;8.42;100.00;103095.81;5088731;28;20506;-68
2020/12/01 09:26:41;;;;;;;15.23;2.53;;;;;;;8.45;100.00;103095.47;5094493;28;20031;-67
2020/12/01 09:29:07;;;;;;;12.50;1.70;;;;;;;8.50;100.00;103093.06;5093459;28;20363;-67
2020/12/01 09:31:37;;;;;;;24.25;2.55;;;;;;;8.57;100.00;103102.25;5093602;28;20051;-70
2020/12/01 09:34:03;;;;;;;16.17;2.40;;;;;;;8.62;100.00;103097.13;5088232;28;20036;-70
2020/12/01 09:36:28;;;;;;;17.73;2.88;;;;;;;8.65;100.00;103085.88;5093237;28;20497;-68
2020/12/01 09:38:54;;;;;;;13.35;2.78;;;;;;;8.69;100.00;103098.16;5093024;28;20466;-68
2020/12/01 09:41:23;;;;;;;15.07;2.17;;;;;;;8.72;100.00;103096.94;5093419;28;20193;-66
2020/12/01 09:43:55;;;;;;;10.63;2.65;;;;;;;8.74;100.00;103101.19;5093136;28;20031;-67
2020/12/01 09:46:32;;;;;;;12.15;2.20;;;;;;;8.76;100.00;103104.59;5089295;28;20043;-69
2020/12/01 09:49:02;;;;;;;14.90;2.15;;;;;;;8.76;100.00;103104.59;5092939;28;20039;-68
2020/12/01 09:51:30;;;;;;;12.30;1.60;;;;;;;8.80;100.00;103105.09;5093141;28;20394;-69
2020/12/01 10:05:00;;;;;;;14.50;2.65;;;;;;;9.05;100.00;103103.13;5087196;28;20032;-69
2020/12/01 10:18:15;;;;;;;17.63;3.60;;;;;;;9.39;100.00;103118.31;5093130;28;20119;-69
2020/12/01 10:30:25;;;;;;;16.45;2.50;;;;;;;9.42;100.00;103104.31;5092213;28;20132;-69
2020/12/01 10:36:38;;;;;;;15.50;2.67;;;;;;;9.69;100.00;103114.69;5091671;28;20160;-68
2020/12/01 10:39:06;;;;;;;16.85;3.65;;;;;;;9.81;100.00;103120.59;5092952;28;20123;-69
2020/12/01 10:41:33;;;;;;;21.98;3.00;;;;;;;9.90;100.00;103119.53;5092880;28;20032;-69
2020/12/01 10:44:00;;;;;;;13.02;2.75;;;;;;;9.98;100.00;103114.00;5092820;28;20036;-70
2020/12/01 10:46:26;;;;;;;17.15;2.72;;;;;;;10.08;100.00;103105.56;5092899;28;20067;-69
2020/12/01 10:48:52;;;;;;;11.93;3.30;;;;;;;10.17;100.00;103109.91;5092753;28;20067;-70
2020/12/01 10:51:17;;;;;;;11.20;1.90;;;;;;;10.29;100.00;103108.47;5092818;28;20032;-68
2020/12/01 10:54:07;;;;;;;12.55;2.00;;;;;;;10.37;100.00;103094.72;5092685;28;20043;-69
2020/12/01 10:56:33;;;;;;;8.25;1.40;;;;;;;10.41;100.00;103085.16;5091207;28;20097;-70
2020/12/01 10:58:59;;;;;;;14.13;2.63;;;;;;;10.47;100.00;103087.13;5092325;28;20032;-69
2020/12/01 11:01:24;;;;;;;12.90;2.40;;;;;;;10.49;100.00;103084.19;5092605;28;20032;-69
2020/12/01 11:03:50;;;;;;;12.35;2.13;;;;;;;10.53;100.00;103083.63;5090903;28;20477;-69
2020/12/01 11:06:15;;;;;;;7.97;1.52;;;;;;;10.56;100.00;103088.72;5092439;28;20039;-70
2020/12/01 11:08:41;;;;;;;9.68;1.55;;;;;;;10.57;100.00;103084.09;5092063;28;20056;-68
2020/12/01 11:11:07;;;;;;;9.80;1.90;;;;;;;10.63;100.00;103082.53;5092351;28;20043;-69
2020/12/01 11:13:32;;;;;;;9.32;1.83;;;;;;;10.68;100.00;103085.53;5092484;28;20051;-69
2020/12/01 11:15:58;;;;;;;11.48;1.75;;;;;;;10.74;100.00;103084.75;5090898;28;20040;-69
2020/12/01 11:18:24;;;;;;;9.73;1.95;;;;;;;10.80;100.00;103084.03;5092066;28;20074;-68
2020/12/01 11:20:49;;;;;;;7.88;1.42;;;;;;;10.83;100.00;103086.38;5091984;28;20055;-69
2020/12/01 11:23:15;;;;;;;9.30;1.52;;;;;;;10.83;100.00;103089.13;5092106;28;20052;-70
2020/12/01 11:25:41;;;;;;;9.32;1.23;;;;;;;10.86;100.00;103083.25;5092098;28;20032;-71
2020/12/01 11:28:07;;;;;;;5.78;1.48;;;;;;;10.94;100.00;103085.91;5091775;28;20032;-69
2020/12/01 11:30:32;;;;;;;9.48;1.75;;;;;;;10.98;100.00;103076.28;5091950;28;20054;-68
2020/12/01 11:32:58;;;;;;;10.50;2.25;;;;;;;11.02;100.00;103085.78;5091776;28;20046;-68
2020/12/01 11:35:24;;;;;;;13.57;2.20;;;;;;;11.06;100.00;103081.63;5091947;28;20092;-68
2020/12/01 11:37:51;;;;;;;9.52;1.50;;;;;;;11.08;100.00;103087.75;5091710;28;20039;-69
2020/12/01 11:40:17;;;;;;;8.38;1.58;;;;;;;11.07;100.00;103075.13;5091978;28;20047;-70
2020/12/01 11:42:42;;;;;;;5.78;1.10;;;;;;;11.09;100.00;103083.97;5091725;28;20028;-69
2020/12/01 11:45:11;;;;;;;6.82;1.67;;;;;;;11.11;100.00;103072.88;5091734;28;20084;-70
2020/12/01 11:47:37;;;;;;;6.75;1.65;;;;;;;11.07;100.00;103080.59;5091621;28;20070;-69
2020/12/01 11:50:05;;;;;;;15.88;1.45;;;;;;;11.10;100.00;103074.75;5090414;28;20051;-70
2020/12/01 11:52:30;;;;;;;7.75;1.40;;;;;;;11.15;100.00;103077.78;5091732;28;20118;-69
2020/12/01 11:54:56;;;;;;;7.43;1.17;;;;;;;11.17;100.00;103067.47;5090337;28;20181;-68
2020/12/01 11:57:21;;;;;;;6.70;1.42;;;;;;;11.20;100.00;103066.25;5091993;28;20035;-70
2020/12/01 11:59:47;;;;;;;7.55;1.50;;;;;;;11.23;100.00;103067.75;5091523;28;20184;-68
2020/12/01 12:02:13;;;;;;;9.77;1.45;;;;;;;11.29;100.00;103072.47;5091391;28;20043;-69
2020/12/01 12:04:38;;;;;;;7.63;1.83;;;;;;;11.25;100.00;103076.59;5090109;28;20036;-70
2020/12/01 12:07:04;;;;;;;5.97;1.00;;;;;;;11.15;100.00;103069.56;5091266;28;20047;-69
2020/12/01 12:09:30;;;;;;;6.18;1.33;;;;;;;11.15;100.00;103069.56;5091140;28;20028;-69
2020/12/01 12:11:55;;;;;;;6.47;1.20;;;;;;;11.26;100.00;103078.28;5091328;28;20182;-68
2020/12/01 12:14:21;;;;;;;5.03;1.73;;;;;;;11.34;100.00;103070.00;5091382;28;20039;-69
2020/12/01 12:16:47;;;;;;;13.80;1.70;;;;;;;11.46;100.00;103071.19;5091186;28;20043;-71